»·PEaware :: CFS8695 KSEA-KBLI

CFS8695 :: KSEA-KBLI

FLIGHT INFORMATION

Flight Status: Arrived
Operator: Unknown
More flights by this operator :: More flights under this callsign
Pilot: Shannon N. (33079)
Aircraft: Unknown
(K100)
More flights by this aircraft type
Origin: KSEA Seattle-Tacoma Intl
United States
Destination: KBLI Bellingham Intl
United States
More flights between these airports :: More routes between these airports
Route: SEA8 SEA V23 HUH
File this flight plan on PilotEdge
Remarks: RMK / SIMBRIEF
Altitude:
(Current/Filed)
6,000ft
Speed:
(Current/Filed)
150kts
Departed: 09-Nov-23 10:32 PM
Arrived: 09-Nov-23 11:31 PM
Distance/Time
Traveled:
81nm/0:59
Distance/Time
To Go:
Arrived

Flight Plot

Page will automatically refresh every two minutes.

Flight plan parsing failed; only flown route is shown


Map Options




Map Legend


Flown Route
Filed Route
Departure Airport
Arrival Airport
Navaid (VOR, NDB)
Fix

Horizontal Profiles

Position Reports

Time Latitude Longitude Heading Altitude Ground
Speed
09-Nov-23 22:18 47.462564 -122.303775 359 380ft 0kts
09-Nov-23 22:19 47.462564 -122.303775 359 380ft 0kts
09-Nov-23 22:20 47.462564 -122.303775 359 380ft 0kts
09-Nov-23 22:21 47.462564 -122.303775 359 380ft 0kts
09-Nov-23 22:22 47.462564 -122.303775 359 380ft 0kts
09-Nov-23 22:23 47.462564 -122.303775 359 380ft 0kts
09-Nov-23 22:24 47.462564 -122.303775 359 380ft 0kts
09-Nov-23 22:25 47.462564 -122.303775 359 380ft 0kts
09-Nov-23 22:26 47.462564 -122.303775 359 380ft 0kts
09-Nov-23 22:27 47.462564 -122.303775 359 380ft 0kts
09-Nov-23 22:28 47.462457 -122.304575 268 380ft 8kts
09-Nov-23 22:29 47.463637 -122.306364 295 380ft 0kts
09-Nov-23 22:30 47.463637 -122.306364 295 380ft 0kts
09-Nov-23 22:31 47.461238 -122.307770 180 380ft 53kts
09-Nov-23 22:32 47.435576 -122.306516 181 1707ft 98kts
09-Nov-23 22:33 47.406426 -122.300577 181 3007ft 141kts
09-Nov-23 22:34 47.364835 -122.305952 203 3008ft 152kts
09-Nov-23 22:35 47.324392 -122.302395 178 2989ft 137kts
09-Nov-23 22:36 47.287357 -122.298293 143 2987ft 147kts
09-Nov-23 22:37 47.297432 -122.238427 65 3716ft 162kts
09-Nov-23 22:38 47.317208 -122.179488 65 5071ft 160kts
09-Nov-23 22:39 47.336306 -122.119703 66 5997ft 176kts
09-Nov-23 22:40 47.357201 -122.052396 66 5997ft 182kts
09-Nov-23 22:41 47.378381 -121.984965 66 5992ft 182kts
09-Nov-23 22:42 47.420176 -121.963348 356 5995ft 170kts
09-Nov-23 22:43 47.467685 -121.961773 356 5992ft 169kts
09-Nov-23 22:44 47.515316 -121.960360 356 5998ft 172kts
09-Nov-23 22:45 47.562430 -121.959439 355 5995ft 167kts
09-Nov-23 22:46 47.609183 -121.958386 356 5991ft 168kts
09-Nov-23 22:47 47.656113 -121.957689 346 5988ft 165kts
09-Nov-23 22:48 47.686318 -121.999652 316 6002ft 152kts
09-Nov-23 22:49 47.719936 -122.039447 316 6003ft 155kts
09-Nov-23 22:50 47.753619 -122.079364 316 5998ft 154kts
09-Nov-23 22:51 47.787453 -122.119555 316 5990ft 156kts
09-Nov-23 22:52 47.821367 -122.159887 317 5989ft 156kts
09-Nov-23 22:53 47.855143 -122.200140 317 5983ft 155kts
09-Nov-23 22:54 47.888876 -122.240402 318 5982ft 155kts
09-Nov-23 22:55 47.923430 -122.278890 339 5982ft 159kts
09-Nov-23 22:56 47.967366 -122.291567 344 5990ft 160kts
09-Nov-23 22:57 48.011235 -122.304225 344 5992ft 160kts
09-Nov-23 22:58 48.054922 -122.316866 344 5974ft 160kts
09-Nov-23 22:59 48.098500 -122.329494 344 6000ft 158kts
09-Nov-23 23:00 48.141980 -122.342121 344 5990ft 160kts
09-Nov-23 23:01 48.185811 -122.354861 344 5993ft 160kts
09-Nov-23 23:02 48.229601 -122.367639 344 5989ft 160kts
09-Nov-23 23:03 48.273410 -122.380408 344 5987ft 160kts
09-Nov-23 23:04 48.317284 -122.393235 344 5978ft 160kts
09-Nov-23 23:05 48.360865 -122.405998 344 5980ft 159kts
09-Nov-23 23:06 48.404508 -122.418801 344 5976ft 159kts
09-Nov-23 23:07 48.447835 -122.431535 343 5976ft 158kts
09-Nov-23 23:08 48.491167 -122.444278 343 5978ft 158kts
09-Nov-23 23:09 48.534616 -122.457073 343 5981ft 159kts
09-Nov-23 23:10 48.577982 -122.469878 343 5973ft 159kts
09-Nov-23 23:11 48.621705 -122.482808 343 5975ft 159kts
09-Nov-23 23:12 48.665307 -122.495741 342 5956ft 160kts
09-Nov-23 23:13 48.710205 -122.509059 342 5965ft 167kts
09-Nov-23 23:14 48.755680 -122.522652 342 5959ft 164kts
09-Nov-23 23:15 48.800103 -122.535949 342 5957ft 161kts
09-Nov-23 23:16 48.845601 -122.549531 343 5451ft 185kts
09-Nov-23 23:17 48.897977 -122.564994 344 4420ft 182kts
09-Nov-23 23:18 48.946595 -122.576096 9 3483ft 180kts
09-Nov-23 23:19 48.992240 -122.540784 28 2505ft 187kts
09-Nov-23 23:20 49.041256 -122.535257 357 2448ft 175kts
09-Nov-23 23:21 49.059024 -122.579345 229 2448ft 139kts
09-Nov-23 23:22 49.026415 -122.574337 139 2446ft 140kts
09-Nov-23 23:23 48.996726 -122.541073 165 2442ft 130kts
09-Nov-23 23:24 48.960472 -122.538160 181 2146ft 124kts
09-Nov-23 23:25 48.929139 -122.538019 181 1954ft 105kts
09-Nov-23 23:26 48.900293 -122.537930 181 1952ft 103kts
09-Nov-23 23:27 48.873145 -122.537895 180 1642ft 100kts
09-Nov-23 23:28 48.844447 -122.537766 180 1049ft 105kts
09-Nov-23 23:29 48.817251 -122.537617 179 514ft 89kts
09-Nov-23 23:30 48.797048 -122.537541 180 170ft 33kts
09-Nov-23 23:32 48.796540 -122.535004 90 170ft 0kts
09-Nov-23 23:33 48.796540 -122.535004 90 170ft 0kts
09-Nov-23 23:34 48.796540 -122.535004 90 170ft 0kts

Navigation Log

Ident Type
Flight plan parsing failed, navigation log unavailable